sensor_id;sensor_type;location;lat;lon;timestamp;P1;durP1;ratioP1;P2;durP2;ratioP2
42036;SDS011;30340;52.004;5.908;2023-04-24T00:00:53;3.63;;;3.33;;
42036;SDS011;30340;52.004;5.908;2023-04-24T00:03:21;4.65;;;4.10;;
42036;SDS011;30340;52.004;5.908;2023-04-24T00:05:49;4.80;;;4.35;;
42036;SDS011;30340;52.004;5.908;2023-04-24T00:08:16;4.60;;;4.05;;
42036;SDS011;30340;52.004;5.908;2023-04-24T00:10:41;5.05;;;4.43;;
42036;SDS011;30340;52.004;5.908;2023-04-24T00:13:07;5.68;;;4.22;;
42036;SDS011;30340;52.004;5.908;2023-04-24T00:15:33;5.40;;;4.90;;
42036;SDS011;30340;52.004;5.908;2023-04-24T00:17:59;5.18;;;4.45;;
42036;SDS011;30340;52.004;5.908;2023-04-24T00:20:26;6.15;;;4.90;;
42036;SDS011;30340;52.004;5.908;2023-04-24T00:22:53;5.95;;;4.78;;
42036;SDS011;30340;52.004;5.908;2023-04-24T00:25:18;4.70;;;4.25;;
42036;SDS011;30340;52.004;5.908;2023-04-24T00:27:44;5.38;;;4.40;;
42036;SDS011;30340;52.004;5.908;2023-04-24T00:30:09;4.25;;;3.85;;
42036;SDS011;30340;52.004;5.908;2023-04-24T00:32:35;4.30;;;3.90;;
42036;SDS011;30340;52.004;5.908;2023-04-24T00:35:01;4.40;;;3.70;;
42036;SDS011;30340;52.004;5.908;2023-04-24T00:37:26;3.25;;;2.88;;
42036;SDS011;30340;52.004;5.908;2023-04-24T00:39:52;2.45;;;2.25;;
42036;SDS011;30340;52.004;5.908;2023-04-24T00:42:17;2.28;;;2.08;;
42036;SDS011;30340;52.004;5.908;2023-04-24T00:44:43;2.60;;;2.40;;
42036;SDS011;30340;52.004;5.908;2023-04-24T00:47:09;4.30;;;2.80;;
42036;SDS011;30340;52.004;5.908;2023-04-24T00:49:36;2.28;;;2.08;;
42036;SDS011;30340;52.004;5.908;2023-04-24T00:52:01;2.30;;;2.10;;
42036;SDS011;30340;52.004;5.908;2023-04-24T00:54:27;2.08;;;1.90;;
42036;SDS011;30340;52.004;5.908;2023-04-24T00:56:52;2.60;;;2.10;;
42036;SDS011;30340;52.004;5.908;2023-04-24T00:59:18;3.65;;;2.50;;
42036;SDS011;30340;52.004;5.908;2023-04-24T01:01:44;2.60;;;2.40;;
42036;SDS011;30340;52.004;5.908;2023-04-24T01:04:11;2.90;;;2.28;;
42036;SDS011;30340;52.004;5.908;2023-04-24T01:06:38;3.22;;;2.63;;
42036;SDS011;30340;52.004;5.908;2023-04-24T01:09:04;4.00;;;3.60;;
42036;SDS011;30340;52.004;5.908;2023-04-24T01:11:30;3.47;;;3.17;;
42036;SDS011;30340;52.004;5.908;2023-04-24T01:13:56;4.25;;;3.40;;
42036;SDS011;30340;52.004;5.908;2023-04-24T01:16:22;3.42;;;3.10;;
42036;SDS011;30340;52.004;5.908;2023-04-24T01:18:48;5.30;;;4.80;;
42036;SDS011;30340;52.004;5.908;2023-04-24T01:21:14;5.78;;;5.18;;
42036;SDS011;30340;52.004;5.908;2023-04-24T01:23:42;8.68;;;7.53;;
42036;SDS011;30340;52.004;5.908;2023-04-24T01:26:11;9.30;;;6.93;;
42036;SDS011;30340;52.004;5.908;2023-04-24T01:28:41;11.43;;;8.98;;
42036;SDS011;30340;52.004;5.908;2023-04-24T01:31:07;10.30;;;8.68;;
42036;SDS011;30340;52.004;5.908;2023-04-24T01:33:32;12.00;;;9.88;;
42036;SDS011;30340;52.004;5.908;2023-04-24T01:35:58;9.30;;;8.07;;
42036;SDS011;30340;52.004;5.908;2023-04-24T01:38:24;9.90;;;7.93;;
42036;SDS011;30340;52.004;5.908;2023-04-24T01:40:50;8.82;;;7.30;;
42036;SDS011;30340;52.004;5.908;2023-04-24T01:43:17;8.85;;;6.82;;
42036;SDS011;30340;52.004;5.908;2023-04-24T01:45:43;7.47;;;5.78;;
42036;SDS011;30340;52.004;5.908;2023-04-24T01:48:08;6.80;;;5.68;;
42036;SDS011;30340;52.004;5.908;2023-04-24T01:50:34;6.15;;;4.97;;
42036;SDS011;30340;52.004;5.908;2023-04-24T01:53:00;4.70;;;4.05;;
42036;SDS011;30340;52.004;5.908;2023-04-24T01:55:25;4.68;;;3.80;;
42036;SDS011;30340;52.004;5.908;2023-04-24T01:57:52;5.22;;;4.18;;
42036;SDS011;30340;52.004;5.908;2023-04-24T02:00:20;5.72;;;4.20;;
42036;SDS011;30340;52.004;5.908;2023-04-24T02:02:46;4.35;;;3.65;;
42036;SDS011;30340;52.004;5.908;2023-04-24T02:05:12;4.28;;;3.67;;
42036;SDS011;30340;52.004;5.908;2023-04-24T02:07:37;5.45;;;4.57;;
42036;SDS011;30340;52.004;5.908;2023-04-24T02:10:03;5.25;;;4.53;;
42036;SDS011;30340;52.004;5.908;2023-04-24T02:12:29;4.75;;;4.20;;
42036;SDS011;30340;52.004;5.908;2023-04-24T02:14:55;4.00;;;3.58;;
42036;SDS011;30340;52.004;5.908;2023-04-24T02:17:21;5.95;;;4.97;;
42036;SDS011;30340;52.004;5.908;2023-04-24T02:19:46;6.15;;;5.30;;
42036;SDS011;30340;52.004;5.908;2023-04-24T02:22:12;6.70;;;5.82;;
42036;SDS011;30340;52.004;5.908;2023-04-24T02:24:37;6.10;;;5.28;;
42036;SDS011;30340;52.004;5.908;2023-04-24T02:27:03;7.15;;;5.47;;
42036;SDS011;30340;52.004;5.908;2023-04-24T02:29:29;6.60;;;5.15;;
42036;SDS011;30340;52.004;5.908;2023-04-24T02:31:55;6.20;;;5.60;;
42036;SDS011;30340;52.004;5.908;2023-04-24T02:34:20;6.00;;;5.13;;
42036;SDS011;30340;52.004;5.908;2023-04-24T02:36:46;8.05;;;6.97;;
42036;SDS011;30340;52.004;5.908;2023-04-24T02:39:12;8.80;;;7.13;;
42036;SDS011;30340;52.004;5.908;2023-04-24T02:41:38;12.63;;;9.77;;
42036;SDS011;30340;52.004;5.908;2023-04-24T02:44:03;12.20;;;10.90;;
42036;SDS011;30340;52.004;5.908;2023-04-24T02:46:29;16.55;;;13.68;;
42036;SDS011;30340;52.004;5.908;2023-04-24T02:48:55;15.48;;;12.90;;
42036;SDS011;30340;52.004;5.908;2023-04-24T02:51:20;19.42;;;14.35;;
42036;SDS011;30340;52.004;5.908;2023-04-24T02:53:46;19.65;;;16.45;;
42036;SDS011;30340;52.004;5.908;2023-04-24T02:56:11;16.98;;;13.82;;
42036;SDS011;30340;52.004;5.908;2023-04-24T02:58:37;16.98;;;14.20;;
42036;SDS011;30340;52.004;5.908;2023-04-24T03:01:03;16.77;;;14.25;;
42036;SDS011;30340;52.004;5.908;2023-04-24T03:03:29;16.17;;;13.20;;
42036;SDS011;30340;52.004;5.908;2023-04-24T03:05:55;14.85;;;12.70;;
42036;SDS011;30340;52.004;5.908;2023-04-24T03:08:21;16.95;;;13.75;;
42036;SDS011;30340;52.004;5.908;2023-04-24T03:10:47;14.88;;;12.30;;
42036;SDS011;30340;52.004;5.908;2023-04-24T03:13:13;13.27;;;11.52;;
42036;SDS011;30340;52.004;5.908;2023-04-24T03:15:38;15.13;;;11.20;;
42036;SDS011;30340;52.004;5.908;2023-04-24T03:18:04;12.02;;;10.15;;
42036;SDS011;30340;52.004;5.908;2023-04-24T03:20:30;12.63;;;10.57;;
42036;SDS011;30340;52.004;5.908;2023-04-24T03:22:55;12.80;;;10.30;;
42036;SDS011;30340;52.004;5.908;2023-04-24T03:25:22;12.25;;;9.27;;
42036;SDS011;30340;52.004;5.908;2023-04-24T03:27:47;12.57;;;10.40;;
42036;SDS011;30340;52.004;5.908;2023-04-24T03:30:13;14.95;;;12.35;;
42036;SDS011;30340;52.004;5.908;2023-04-24T03:32:38;13.10;;;11.48;;
42036;SDS011;30340;52.004;5.908;2023-04-24T03:35:05;16.27;;;13.18;;
42036;SDS011;30340;52.004;5.908;2023-04-24T03:37:32;20.48;;;17.60;;
42036;SDS011;30340;52.004;5.908;2023-04-24T03:39:58;20.42;;;17.20;;
42036;SDS011;30340;52.004;5.908;2023-04-24T03:42:23;20.20;;;16.90;;
42036;SDS011;30340;52.004;5.908;2023-04-24T03:44:49;18.75;;;15.68;;
42036;SDS011;30340;52.004;5.908;2023-04-24T03:47:14;16.33;;;13.88;;
42036;SDS011;30340;52.004;5.908;2023-04-24T03:49:40;15.18;;;13.20;;
42036;SDS011;30340;52.004;5.908;2023-04-24T03:52:05;19.88;;;15.30;;
42036;SDS011;30340;52.004;5.908;2023-04-24T03:54:31;21.90;;;17.65;;
42036;SDS011;30340;52.004;5.908;2023-04-24T03:56:56;19.25;;;15.60;;
42036;SDS011;30340;52.004;5.908;2023-04-24T03:59:22;19.40;;;15.90;;
42036;SDS011;30340;52.004;5.908;2023-04-24T04:01:47;21.58;;;16.10;;
42036;SDS011;30340;52.004;5.908;2023-04-24T04:04:13;20.13;;;16.45;;
42036;SDS011;30340;52.004;5.908;2023-04-24T04:06:39;28.20;;;23.25;;
42036;SDS011;30340;52.004;5.908;2023-04-24T04:09:05;24.58;;;21.17;;
42036;SDS011;30340;52.004;5.908;2023-04-24T04:11:30;28.20;;;23.45;;
42036;SDS011;30340;52.004;5.908;2023-04-24T04:13:56;30.10;;;24.45;;
42036;SDS011;30340;52.004;5.908;2023-04-24T04:16:21;31.73;;;25.83;;
42036;SDS011;30340;52.004;5.908;2023-04-24T04:18:47;25.27;;;21.15;;
42036;SDS011;30340;52.004;5.908;2023-04-24T04:21:13;26.65;;;22.77;;
42036;SDS011;30340;52.004;5.908;2023-04-24T04:23:39;31.58;;;24.55;;
42036;SDS011;30340;52.004;5.908;2023-04-24T04:26:05;28.20;;;21.77;;
42036;SDS011;30340;52.004;5.908;2023-04-24T04:28:31;28.52;;;23.92;;
42036;SDS011;30340;52.004;5.908;2023-04-24T04:30:57;27.13;;;22.67;;
42036;SDS011;30340;52.004;5.908;2023-04-24T04:33:23;28.70;;;24.05;;
42036;SDS011;30340;52.004;5.908;2023-04-24T04:35:49;33.05;;;26.25;;
42036;SDS011;30340;52.004;5.908;2023-04-24T04:38:16;27.17;;;22.40;;
42036;SDS011;30340;52.004;5.908;2023-04-24T04:40:43;32.30;;;25.42;;
42036;SDS011;30340;52.004;5.908;2023-04-24T04:43:09;37.05;;;28.63;;
42036;SDS011;30340;52.004;5.908;2023-04-24T04:45:35;29.27;;;24.02;;
42036;SDS011;30340;52.004;5.908;2023-04-24T04:48:06;24.58;;;20.20;;
42036;SDS011;30340;52.004;5.908;2023-04-24T04:50:33;24.67;;;20.10;;
42036;SDS011;30340;52.004;5.908;2023-04-24T04:53:02;24.80;;;21.05;;
42036;SDS011;30340;52.004;5.908;2023-04-24T04:55:28;24.73;;;19.45;;
42036;SDS011;30340;52.004;5.908;2023-04-24T04:57:53;23.52;;;20.52;;
42036;SDS011;30340;52.004;5.908;2023-04-24T05:00:21;25.10;;;21.48;;
42036;SDS011;30340;52.004;5.908;2023-04-24T05:02:46;22.60;;;19.42;;
42036;SDS011;30340;52.004;5.908;2023-04-24T05:05:12;29.95;;;23.05;;
42036;SDS011;30340;52.004;5.908;2023-04-24T05:07:38;26.60;;;20.33;;
42036;SDS011;30340;52.004;5.908;2023-04-24T05:10:03;27.38;;;22.83;;
42036;SDS011;30340;52.004;5.908;2023-04-24T05:12:29;23.00;;;19.05;;
42036;SDS011;30340;52.004;5.908;2023-04-24T05:14:55;26.88;;;22.85;;
42036;SDS011;30340;52.004;5.908;2023-04-24T05:17:20;23.42;;;18.10;;
42036;SDS011;30340;52.004;5.908;2023-04-24T05:19:46;19.48;;;16.48;;
42036;SDS011;30340;52.004;5.908;2023-04-24T05:22:13;19.70;;;15.60;;
42036;SDS011;30340;52.004;5.908;2023-04-24T05:24:38;19.95;;;17.20;;
42036;SDS011;30340;52.004;5.908;2023-04-24T05:27:04;15.07;;;13.48;;
42036;SDS011;30340;52.004;5.908;2023-04-24T05:29:30;15.48;;;13.52;;
42036;SDS011;30340;52.004;5.908;2023-04-24T05:31:56;16.23;;;13.55;;
42036;SDS011;30340;52.004;5.908;2023-04-24T05:34:22;14.48;;;12.98;;
42036;SDS011;30340;52.004;5.908;2023-04-24T05:36:48;14.43;;;12.13;;
42036;SDS011;30340;52.004;5.908;2023-04-24T05:39:14;15.02;;;12.52;;
42036;SDS011;30340;52.004;5.908;2023-04-24T05:41:40;13.85;;;11.77;;
42036;SDS011;30340;52.004;5.908;2023-04-24T05:44:05;14.40;;;11.38;;
42036;SDS011;30340;52.004;5.908;2023-04-24T05:46:31;13.98;;;11.00;;
42036;SDS011;30340;52.004;5.908;2023-04-24T05:48:57;14.38;;;11.63;;
42036;SDS011;30340;52.004;5.908;2023-04-24T05:51:22;12.98;;;10.60;;
42036;SDS011;30340;52.004;5.908;2023-04-24T05:53:48;11.60;;;10.00;;
42036;SDS011;30340;52.004;5.908;2023-04-24T05:56:14;11.38;;;9.52;;
42036;SDS011;30340;52.004;5.908;2023-04-24T05:58:40;10.57;;;9.10;;
42036;SDS011;30340;52.004;5.908;2023-04-24T06:01:06;12.05;;;9.95;;
42036;SDS011;30340;52.004;5.908;2023-04-24T06:03:31;10.38;;;9.00;;
42036;SDS011;30340;52.004;5.908;2023-04-24T06:05:57;9.85;;;8.07;;
42036;SDS011;30340;52.004;5.908;2023-04-24T06:08:23;9.52;;;7.90;;
42036;SDS011;30340;52.004;5.908;2023-04-24T06:10:48;9.52;;;7.60;;
42036;SDS011;30340;52.004;5.908;2023-04-24T06:13:14;7.55;;;6.15;;
42036;SDS011;30340;52.004;5.908;2023-04-24T06:15:40;8.65;;;7.20;;
42036;SDS011;30340;52.004;5.908;2023-04-24T06:18:05;8.25;;;6.82;;
42036;SDS011;30340;52.004;5.908;2023-04-24T06:20:31;8.48;;;6.80;;
42036;SDS011;30340;52.004;5.908;2023-04-24T06:22:56;7.63;;;6.43;;
42036;SDS011;30340;52.004;5.908;2023-04-24T06:25:24;8.18;;;7.13;;
42036;SDS011;30340;52.004;5.908;2023-04-24T06:27:51;7.38;;;5.80;;
42036;SDS011;30340;52.004;5.908;2023-04-24T06:30:17;7.78;;;6.03;;
42036;SDS011;30340;52.004;5.908;2023-04-24T06:32:42;6.68;;;5.68;;
42036;SDS011;30340;52.004;5.908;2023-04-24T06:35:08;7.43;;;6.38;;
42036;SDS011;30340;52.004;5.908;2023-04-24T06:37:34;6.82;;;5.50;;
42036;SDS011;30340;52.004;5.908;2023-04-24T06:40:00;6.40;;;5.53;;
42036;SDS011;30340;52.004;5.908;2023-04-24T06:42:26;5.28;;;4.78;;
42036;SDS011;30340;52.004;5.908;2023-04-24T06:44:53;5.25;;;4.57;;
42036;SDS011;30340;52.004;5.908;2023-04-24T06:47:18;7.63;;;4.80;;
42036;SDS011;30340;52.004;5.908;2023-04-24T06:49:44;6.28;;;4.22;;
42036;SDS011;30340;52.004;5.908;2023-04-24T06:52:09;5.38;;;4.57;;
42036;SDS011;30340;52.004;5.908;2023-04-24T06:54:35;4.78;;;4.10;;
42036;SDS011;30340;52.004;5.908;2023-04-24T06:57:01;3.78;;;3.40;;
42036;SDS011;30340;52.004;5.908;2023-04-24T06:59:28;3.60;;;3.17;;
42036;SDS011;30340;52.004;5.908;2023-04-24T07:01:54;3.60;;;2.97;;
42036;SDS011;30340;52.004;5.908;2023-04-24T07:04:20;3.38;;;2.95;;
42036;SDS011;30340;52.004;5.908;2023-04-24T07:06:45;4.50;;;3.42;;
42036;SDS011;30340;52.004;5.908;2023-04-24T07:09:12;2.72;;;2.45;;
42036;SDS011;30340;52.004;5.908;2023-04-24T07:11:38;3.83;;;2.42;;
42036;SDS011;30340;52.004;5.908;2023-04-24T07:14:05;2.70;;;2.30;;
42036;SDS011;30340;52.004;5.908;2023-04-24T07:16:31;3.80;;;2.60;;
42036;SDS011;30340;52.004;5.908;2023-04-24T07:18:57;3.28;;;2.58;;
42036;SDS011;30340;52.004;5.908;2023-04-24T07:21:22;2.25;;;2.05;;
42036;SDS011;30340;52.004;5.908;2023-04-24T07:23:48;2.38;;;2.13;;
42036;SDS011;30340;52.004;5.908;2023-04-24T07:26:13;2.78;;;2.10;;
42036;SDS011;30340;52.004;5.908;2023-04-24T07:28:39;2.35;;;1.90;;
42036;SDS011;30340;52.004;5.908;2023-04-24T07:31:05;2.33;;;2.13;;
42036;SDS011;30340;52.004;5.908;2023-04-24T07:33:31;2.35;;;2.15;;
42036;SDS011;30340;52.004;5.908;2023-04-24T07:35:57;1.92;;;1.83;;
42036;SDS011;30340;52.004;5.908;2023-04-24T07:38:23;2.38;;;2.10;;
42036;SDS011;30340;52.004;5.908;2023-04-24T07:40:50;2.20;;;2.00;;
42036;SDS011;30340;52.004;5.908;2023-04-24T07:43:16;2.30;;;2.10;;
42036;SDS011;30340;52.004;5.908;2023-04-24T07:45:42;3.22;;;2.83;;
42036;SDS011;30340;52.004;5.908;2023-04-24T07:48:08;3.40;;;2.60;;
42036;SDS011;30340;52.004;5.908;2023-04-24T07:50:34;4.20;;;3.17;;
42036;SDS011;30340;52.004;5.908;2023-04-24T07:53:01;3.78;;;3.28;;
42036;SDS011;30340;52.004;5.908;2023-04-24T07:55:27;5.60;;;4.43;;
42036;SDS011;30340;52.004;5.908;2023-04-24T07:57:52;7.18;;;5.53;;
42036;SDS011;30340;52.004;5.908;2023-04-24T08:00:18;9.18;;;6.32;;
42036;SDS011;30340;52.004;5.908;2023-04-24T08:02:44;9.38;;;6.70;;
42036;SDS011;30340;52.004;5.908;2023-04-24T08:05:09;8.13;;;6.50;;
42036;SDS011;30340;52.004;5.908;2023-04-24T08:07:35;10.23;;;7.60;;
42036;SDS011;30340;52.004;5.908;2023-04-24T08:10:00;10.43;;;6.85;;
42036;SDS011;30340;52.004;5.908;2023-04-24T08:12:28;7.75;;;6.20;;
42036;SDS011;30340;52.004;5.908;2023-04-24T08:14:54;7.65;;;5.97;;
42036;SDS011;30340;52.004;5.908;2023-04-24T08:17:20;7.35;;;5.65;;
42036;SDS011;30340;52.004;5.908;2023-04-24T08:19:45;9.13;;;6.28;;
42036;SDS011;30340;52.004;5.908;2023-04-24T08:22:13;9.60;;;6.60;;
42036;SDS011;30340;52.004;5.908;2023-04-24T08:24:39;7.68;;;5.43;;
42036;SDS011;30340;52.004;5.908;2023-04-24T08:27:05;8.85;;;6.03;;
42036;SDS011;30340;52.004;5.908;2023-04-24T08:29:30;9.48;;;6.82;;
42036;SDS011;30340;52.004;5.908;2023-04-24T08:31:56;7.80;;;5.93;;
42036;SDS011;30340;52.004;5.908;2023-04-24T08:34:22;11.23;;;7.10;;
42036;SDS011;30340;52.004;5.908;2023-04-24T08:36:47;11.45;;;7.00;;
42036;SDS011;30340;52.004;5.908;2023-04-24T08:39:13;9.90;;;7.55;;
42036;SDS011;30340;52.004;5.908;2023-04-24T08:41:41;11.13;;;7.05;;
42036;SDS011;30340;52.004;5.908;2023-04-24T08:44:10;11.60;;;7.88;;
42036;SDS011;30340;52.004;5.908;2023-04-24T08:46:37;9.15;;;6.50;;
42036;SDS011;30340;52.004;5.908;2023-04-24T08:49:04;10.50;;;6.78;;
42036;SDS011;30340;52.004;5.908;2023-04-24T08:51:30;9.25;;;6.78;;
42036;SDS011;30340;52.004;5.908;2023-04-24T08:53:56;10.07;;;6.47;;
42036;SDS011;30340;52.004;5.908;2023-04-24T08:56:22;10.43;;;6.88;;
42036;SDS011;30340;52.004;5.908;2023-04-24T08:58:53;10.13;;;6.57;;
42036;SDS011;30340;52.004;5.908;2023-04-24T09:01:20;8.40;;;6.20;;
42036;SDS011;30340;52.004;5.908;2023-04-24T09:03:46;10.18;;;6.85;;
42036;SDS011;30340;52.004;5.908;2023-04-24T09:06:13;9.57;;;5.63;;
42036;SDS011;30340;52.004;5.908;2023-04-24T09:08:41;9.65;;;5.43;;
42036;SDS011;30340;52.004;5.908;2023-04-24T09:11:08;8.07;;;5.00;;
42036;SDS011;30340;52.004;5.908;2023-04-24T09:13:36;6.13;;;4.32;;
42036;SDS011;30340;52.004;5.908;2023-04-24T09:16:02;6.88;;;3.88;;
42036;SDS011;30340;52.004;5.908;2023-04-24T09:18:28;7.40;;;4.30;;
42036;SDS011;30340;52.004;5.908;2023-04-24T09:20:57;11.15;;;4.88;;
42036;SDS011;30340;52.004;5.908;2023-04-24T09:23:22;6.63;;;3.90;;
42036;SDS011;30340;52.004;5.908;2023-04-24T09:25:53;9.93;;;4.03;;
42036;SDS011;30340;52.004;5.908;2023-04-24T09:28:22;8.27;;;4.20;;
42036;SDS011;30340;52.004;5.908;2023-04-24T09:33:29;11.50;;;4.70;;
42036;SDS011;30340;52.004;5.908;2023-04-24T09:35:54;8.18;;;3.58;;
42036;SDS011;30340;52.004;5.908;2023-04-24T09:38:30;11.93;;;4.30;;
42036;SDS011;30340;52.004;5.908;2023-04-24T09:41:04;12.50;;;4.35;;
42036;SDS011;30340;52.004;5.908;2023-04-24T09:43:31;11.35;;;3.92;;
42036;SDS011;30340;52.004;5.908;2023-04-24T09:45:58;8.45;;;3.10;;
42036;SDS011;30340;52.004;5.908;2023-04-24T09:48:32;10.20;;;3.67;;
42036;SDS011;30340;52.004;5.908;2023-04-24T09:51:00;10.65;;;3.70;;
42036;SDS011;30340;52.004;5.908;2023-04-24T09:53:27;10.25;;;3.20;;
42036;SDS011;30340;52.004;5.908;2023-04-24T09:55:53;10.13;;;3.35;;
42036;SDS011;30340;52.004;5.908;2023-04-24T09:58:24;9.30;;;3.60;;
42036;SDS011;30340;52.004;5.908;2023-04-24T10:00:52;7.70;;;2.80;;
42036;SDS011;30340;52.004;5.908;2023-04-24T10:03:19;10.60;;;3.45;;
42036;SDS011;30340;52.004;5.908;2023-04-24T10:05:45;6.43;;;2.70;;
42036;SDS011;30340;52.004;5.908;2023-04-24T10:08:11;7.72;;;3.00;;
42036;SDS011;30340;52.004;5.908;2023-04-24T10:10:39;9.70;;;3.30;;
42036;SDS011;30340;52.004;5.908;2023-04-24T10:13:09;10.40;;;3.03;;
42036;SDS011;30340;52.004;5.908;2023-04-24T10:15:35;10.05;;;3.35;;
42036;SDS011;30340;52.004;5.908;2023-04-24T10:18:01;12.18;;;3.58;;
42036;SDS011;30340;52.004;5.908;2023-04-24T10:20:29;7.13;;;3.50;;
42036;SDS011;30340;52.004;5.908;2023-04-24T10:22:56;8.75;;;3.30;;
42036;SDS011;30340;52.004;5.908;2023-04-24T10:25:24;8.40;;;3.72;;
42036;SDS011;30340;52.004;5.908;2023-04-24T10:27:54;10.73;;;2.97;;
42036;SDS011;30340;52.004;5.908;2023-04-24T10:30:25;7.40;;;2.80;;
42036;SDS011;30340;52.004;5.908;2023-04-24T10:32:52;9.80;;;3.03;;
42036;SDS011;30340;52.004;5.908;2023-04-24T10:35:18;7.55;;;2.70;;
42036;SDS011;30340;52.004;5.908;2023-04-24T10:37:48;7.95;;;3.20;;
42036;SDS011;30340;52.004;5.908;2023-04-24T10:40:19;8.95;;;3.22;;
42036;SDS011;30340;52.004;5.908;2023-04-24T10:42:51;6.13;;;2.85;;
42036;SDS011;30340;52.004;5.908;2023-04-24T10:45:19;8.07;;;3.17;;
42036;SDS011;30340;52.004;5.908;2023-04-24T10:50:21;8.70;;;2.67;;
42036;SDS011;30340;52.004;5.908;2023-04-24T10:52:47;4.88;;;2.20;;
42036;SDS011;30340;52.004;5.908;2023-04-24T10:55:16;6.60;;;2.50;;
42036;SDS011;30340;52.004;5.908;2023-04-24T10:58:04;4.93;;;2.60;;
42036;SDS011;30340;52.004;5.908;2023-04-24T11:00:29;4.85;;;2.50;;
42036;SDS011;30340;52.004;5.908;2023-04-24T11:02:55;6.78;;;2.40;;
42036;SDS011;30340;52.004;5.908;2023-04-24T11:05:22;7.00;;;2.00;;
42036;SDS011;30340;52.004;5.908;2023-04-24T11:08:15;5.78;;;2.28;;
42036;SDS011;30340;52.004;5.908;2023-04-24T11:10:46;6.10;;;2.20;;
42036;SDS011;30340;52.004;5.908;2023-04-24T11:13:21;6.25;;;2.58;;
42036;SDS011;30340;52.004;5.908;2023-04-24T11:19:01;4.28;;;2.13;;
42036;SDS011;30340;52.004;5.908;2023-04-24T11:21:31;6.05;;;2.42;;
42036;SDS011;30340;52.004;5.908;2023-04-24T11:23:57;2.90;;;1.50;;
42036;SDS011;30340;52.004;5.908;2023-04-24T11:26:23;5.15;;;1.95;;
42036;SDS011;30340;52.004;5.908;2023-04-24T11:28:55;4.72;;;1.50;;
42036;SDS011;30340;52.004;5.908;2023-04-24T11:31:38;5.75;;;1.67;;
42036;SDS011;30340;52.004;5.908;2023-04-24T11:34:09;3.72;;;1.60;;
42036;SDS011;30340;52.004;5.908;2023-04-24T11:36:37;4.90;;;1.45;;
42036;SDS011;30340;52.004;5.908;2023-04-24T11:39:03;1.63;;;1.10;;
42036;SDS011;30340;52.004;5.908;2023-04-24T11:41:28;2.53;;;1.38;;
42036;SDS011;30340;52.004;5.908;2023-04-24T11:43:54;2.10;;;1.20;;
42036;SDS011;30340;52.004;5.908;2023-04-24T11:46:21;2.67;;;1.42;;
42036;SDS011;30340;52.004;5.908;2023-04-24T11:48:47;3.13;;;1.38;;
42036;SDS011;30340;52.004;5.908;2023-04-24T11:51:13;2.47;;;1.20;;
42036;SDS011;30340;52.004;5.908;2023-04-24T11:53:39;3.38;;;1.25;;
42036;SDS011;30340;52.004;5.908;2023-04-24T11:56:05;3.40;;;1.30;;
42036;SDS011;30340;52.004;5.908;2023-04-24T11:58:38;2.75;;;1.20;;
42036;SDS011;30340;52.004;5.908;2023-04-24T12:01:04;2.05;;;1.17;;
42036;SDS011;30340;52.004;5.908;2023-04-24T12:03:30;2.85;;;1.10;;
42036;SDS011;30340;52.004;5.908;2023-04-24T12:06:06;3.08;;;1.60;;
42036;SDS011;30340;52.004;5.908;2023-04-24T12:08:32;2.53;;;1.08;;
42036;SDS011;30340;52.004;5.908;2023-04-24T12:11:00;1.75;;;1.00;;
42036;SDS011;30340;52.004;5.908;2023-04-24T12:13:26;1.88;;;0.90;;
42036;SDS011;30340;52.004;5.908;2023-04-24T12:15:52;2.25;;;1.00;;
42036;SDS011;30340;52.004;5.908;2023-04-24T12:18:17;1.75;;;0.90;;
42036;SDS011;30340;52.004;5.908;2023-04-24T12:20:43;2.10;;;1.02;;
42036;SDS011;30340;52.004;5.908;2023-04-24T12:23:09;2.47;;;1.00;;
42036;SDS011;30340;52.004;5.908;2023-04-24T12:25:34;3.45;;;1.40;;
42036;SDS011;30340;52.004;5.908;2023-04-24T12:30:28;3.83;;;1.10;;
42036;SDS011;30340;52.004;5.908;2023-04-24T12:32:57;3.15;;;1.27;;
42036;SDS011;30340;52.004;5.908;2023-04-24T12:35:24;2.90;;;1.15;;
42036;SDS011;30340;52.004;5.908;2023-04-24T12:37:51;2.33;;;1.27;;
42036;SDS011;30340;52.004;5.908;2023-04-24T12:40:17;4.28;;;1.52;;
42036;SDS011;30340;52.004;5.908;2023-04-24T12:42:44;2.70;;;1.20;;
42036;SDS011;30340;52.004;5.908;2023-04-24T12:45:11;2.58;;;1.27;;
42036;SDS011;30340;52.004;5.908;2023-04-24T12:47:37;3.35;;;1.20;;
42036;SDS011;30340;52.004;5.908;2023-04-24T12:50:04;2.67;;;1.25;;
42036;SDS011;30340;52.004;5.908;2023-04-24T12:52:31;2.25;;;1.17;;
42036;SDS011;30340;52.004;5.908;2023-04-24T12:54:57;4.38;;;1.65;;
42036;SDS011;30340;52.004;5.908;2023-04-24T12:57:24;3.03;;;1.15;;
42036;SDS011;30340;52.004;5.908;2023-04-24T12:59:53;3.67;;;1.52;;
42036;SDS011;30340;52.004;5.908;2023-04-24T13:02:20;1.20;;;1.10;;
42036;SDS011;30340;52.004;5.908;2023-04-24T13:04:47;1.58;;;1.08;;
42036;SDS011;30340;52.004;5.908;2023-04-24T13:07:12;2.92;;;1.20;;
42036;SDS011;30340;52.004;5.908;2023-04-24T13:09:39;1.20;;;1.10;;
42036;SDS011;30340;52.004;5.908;2023-04-24T13:12:06;2.78;;;1.00;;
42036;SDS011;30340;52.004;5.908;2023-04-24T13:14:32;3.17;;;1.20;;
42036;SDS011;30340;52.004;5.908;2023-04-24T13:16:58;3.90;;;1.40;;
42036;SDS011;30340;52.004;5.908;2023-04-24T13:19:27;4.10;;;1.20;;
42036;SDS011;30340;52.004;5.908;2023-04-24T13:21:56;3.08;;;1.30;;
42036;SDS011;30340;52.004;5.908;2023-04-24T13:24:25;4.00;;;1.20;;
42036;SDS011;30340;52.004;5.908;2023-04-24T13:26:51;2.95;;;1.10;;
42036;SDS011;30340;52.004;5.908;2023-04-24T13:29:17;3.60;;;1.20;;
42036;SDS011;30340;52.004;5.908;2023-04-24T13:31:42;3.40;;;1.40;;
42036;SDS011;30340;52.004;5.908;2023-04-24T13:34:08;3.33;;;1.42;;
42036;SDS011;30340;52.004;5.908;2023-04-24T13:36:34;3.30;;;1.40;;
42036;SDS011;30340;52.004;5.908;2023-04-24T13:39:00;4.35;;;1.40;;
42036;SDS011;30340;52.004;5.908;2023-04-24T13:41:25;3.50;;;1.50;;
42036;SDS011;30340;52.004;5.908;2023-04-24T13:43:51;3.33;;;1.55;;
42036;SDS011;30340;52.004;5.908;2023-04-24T13:46:17;4.32;;;1.50;;
42036;SDS011;30340;52.004;5.908;2023-04-24T13:48:42;4.25;;;1.45;;
42036;SDS011;30340;52.004;5.908;2023-04-24T13:51:08;4.05;;;1.70;;
42036;SDS011;30340;52.004;5.908;2023-04-24T13:53:33;5.35;;;2.00;;
42036;SDS011;30340;52.004;5.908;2023-04-24T13:56:03;4.60;;;1.77;;
42036;SDS011;30340;52.004;5.908;2023-04-24T13:58:28;3.05;;;1.60;;
42036;SDS011;30340;52.004;5.908;2023-04-24T14:00:54;4.80;;;1.60;;
42036;SDS011;30340;52.004;5.908;2023-04-24T14:03:20;4.25;;;1.58;;
42036;SDS011;30340;52.004;5.908;2023-04-24T14:05:45;5.68;;;1.73;;
42036;SDS011;30340;52.004;5.908;2023-04-24T14:08:11;6.32;;;1.90;;
42036;SDS011;30340;52.004;5.908;2023-04-24T14:10:36;4.63;;;1.90;;
42036;SDS011;30340;52.004;5.908;2023-04-24T14:13:02;6.15;;;1.95;;
42036;SDS011;30340;52.004;5.908;2023-04-24T14:15:28;5.55;;;2.20;;
42036;SDS011;30340;52.004;5.908;2023-04-24T14:17:53;4.93;;;2.22;;
42036;SDS011;30340;52.004;5.908;2023-04-24T14:20:19;6.35;;;2.30;;
42036;SDS011;30340;52.004;5.908;2023-04-24T14:22:45;5.32;;;2.13;;
42036;SDS011;30340;52.004;5.908;2023-04-24T14:25:10;5.63;;;1.90;;
42036;SDS011;30340;52.004;5.908;2023-04-24T14:27:36;5.28;;;1.83;;
42036;SDS011;30340;52.004;5.908;2023-04-24T14:30:02;5.68;;;1.80;;
42036;SDS011;30340;52.004;5.908;2023-04-24T14:32:29;9.45;;;2.45;;
42036;SDS011;30340;52.004;5.908;2023-04-24T14:34:54;5.22;;;1.90;;
42036;SDS011;30340;52.004;5.908;2023-04-24T14:37:20;9.23;;;2.35;;
42036;SDS011;30340;52.004;5.908;2023-04-24T14:39:46;7.10;;;2.10;;
42036;SDS011;30340;52.004;5.908;2023-04-24T14:42:11;6.65;;;2.55;;
42036;SDS011;30340;52.004;5.908;2023-04-24T14:44:37;6.00;;;2.40;;
42036;SDS011;30340;52.004;5.908;2023-04-24T14:47:02;4.60;;;2.00;;